Time;durP1;ratioP1;P1;durP2;ratioP2;P2;SDS_P1;SDS_P2;PMS_P1;PMS_P2;Temp;Humidity;BMP_temperature;BMP_pressure;BME280_temperature;BME280_humidity;BME280_pressure;Samples;Min_cycle;Max_cycle;Signal;HPM_P1;HPM_P2
2021/11/30 00:01:08;;;;;;;22.40;12.07;;;;;;;6.37;77.46;98105.56;4895706;29;20028;-52
2021/11/30 00:03:35;;;;;;;21.08;12.18;;;;;;;6.29;78.89;98109.28;4895523;29;20552;-49
2021/11/30 00:06:00;;;;;;;22.58;12.40;;;;;;;6.37;78.73;98105.56;4895317;29;20398;-53
2021/11/30 00:08:29;;;;;;;21.90;12.50;;;;;;;6.41;77.54;98112.03;4895187;29;20052;-49
2021/11/30 00:10:58;;;;;;;21.58;13.05;;;;;;;6.22;78.05;98106.69;4895323;29;20029;-52
2021/11/30 00:13:23;;;;;;;22.17;12.15;;;;;;;6.19;77.94;98096.56;4895246;29;20362;-50
2021/11/30 00:15:50;;;;;;;22.30;12.40;;;;;;;6.29;78.10;98090.00;4895117;29;20028;-49
2021/11/30 00:18:16;;;;;;;23.63;12.27;;;;;;;6.32;78.38;98089.53;4895311;29;20033;-49
2021/11/30 00:20:42;;;;;;;21.95;12.55;;;;;;;6.24;78.51;98109.13;4895148;29;20028;-52
2021/11/30 00:23:07;;;;;;;20.55;11.93;;;;;;;6.20;78.21;98108.72;4894903;29;20135;-52
2021/11/30 00:25:33;;;;;;;22.35;12.27;;;;;;;6.38;78.04;98096.63;4895515;29;20107;-52
2021/11/30 00:27:59;;;;;;;20.27;12.02;;;;;;;6.23;78.62;98089.81;4895751;29;20484;-51
2021/11/30 00:30:25;;;;;;;20.83;12.05;;;;;;;6.15;77.91;98086.63;4895679;29;20052;-51
2021/11/30 00:32:50;;;;;;;22.40;11.68;;;;;;;5.76;79.59;98099.06;4895719;29;20032;-49
2021/11/30 00:35:16;;;;;;;21.83;12.40;;;;;;;5.98;79.12;98107.50;4895738;29;20064;-50
2021/11/30 00:37:41;;;;;;;23.17;12.57;;;;;;;6.24;78.19;98099.38;4895660;29;20052;-49
2021/11/30 00:40:08;;;;;;;22.88;12.95;;;;;;;6.29;77.83;98105.84;4894353;29;20299;-49
2021/11/30 00:42:34;;;;;;;20.98;12.70;;;;;;;6.18;78.74;98099.41;4895682;29;20028;-53
2021/11/30 00:45:01;;;;;;;19.63;12.32;;;;;;;6.41;78.01;98096.97;4879155;29;20036;-52
2021/11/30 00:47:29;;;;;;;20.08;12.00;;;;;;;6.29;78.71;98098.72;4895573;29;20028;-49
2021/11/30 00:49:55;;;;;;;20.05;12.43;;;;;;;6.35;78.53;98089.91;4895711;29;20387;-49
2021/11/30 00:52:21;;;;;;;21.20;12.30;;;;;;;6.43;78.32;98088.84;4895738;29;20156;-49
2021/11/30 00:54:47;;;;;;;23.02;12.70;;;;;;;6.38;78.51;98086.84;4895541;29;20028;-52
2021/11/30 00:57:13;;;;;;;21.95;12.02;;;;;;;6.47;77.58;98084.72;4895693;29;20021;-49
2021/11/30 00:59:38;;;;;;;17.35;11.63;;;;;;;6.43;77.71;98059.78;4895304;29;20028;-51
2021/11/30 01:02:04;;;;;;;22.95;11.50;;;;;;;6.30;78.21;98073.09;4895407;29;20032;-48
2021/11/30 01:04:29;;;;;;;21.17;11.32;;;;;;;6.34;77.66;98075.09;4895275;29;20021;-49
2021/11/30 01:06:55;;;;;;;19.50;11.63;;;;;;;6.48;77.18;98043.28;4895261;29;20032;-50
2021/11/30 01:09:21;;;;;;;18.63;11.60;;;;;;;6.05;78.77;98034.28;4895148;29;20442;-49
2021/11/30 01:11:46;;;;;;;18.83;11.30;;;;;;;6.12;79.83;98056.19;4895247;29;20085;-49
2021/11/30 01:14:12;;;;;;;21.30;10.60;;;;;;;6.23;78.03;98044.91;4895303;29;20028;-51
2021/11/30 01:16:37;;;;;;;18.90;11.63;;;;;;;6.13;78.39;98020.84;4862869;29;20029;-49
2021/11/30 01:19:03;;;;;;;18.75;11.15;;;;;;;6.15;79.31;97991.53;4895121;29;20032;-50
2021/11/30 01:21:28;;;;;;;18.23;10.90;;;;;;;6.29;78.97;97974.56;4895390;29;20029;-52
2021/11/30 01:23:54;;;;;;;19.08;10.93;;;;;;;6.15;79.41;97965.13;4895284;29;20043;-50
2021/11/30 01:26:19;;;;;;;18.20;10.98;;;;;;;6.35;79.08;97978.94;4895375;29;20112;-52
2021/11/30 01:28:45;;;;;;;20.92;10.95;;;;;;;6.18;78.64;97993.75;4895250;29;20470;-50
2021/11/30 01:31:10;;;;;;;19.40;11.20;;;;;;;6.27;79.19;97968.69;4895388;29;20029;-51
2021/11/30 01:33:36;;;;;;;17.90;11.55;;;;;;;6.23;79.15;97930.53;4895297;29;20491;-51
2021/11/30 01:36:05;;;;;;;20.05;11.18;;;;;;;6.33;78.75;97932.66;4897937;29;20077;-53
2021/11/30 01:38:31;;;;;;;17.98;10.90;;;;;;;6.25;78.74;97945.13;4898586;29;20103;-53
2021/11/30 01:40:59;;;;;;;19.08;11.60;;;;;;;6.13;79.19;97968.00;4898798;29;20032;-51
2021/11/30 01:43:27;;;;;;;19.25;11.18;;;;;;;6.11;79.66;97951.56;4898837;29;20035;-52
2021/11/30 01:46:11;;;;;;;19.20;10.65;;;;;;;6.09;80.40;97939.59;4898433;29;20052;-52
2021/11/30 01:51:21;;;;;;;18.60;10.70;;;;;;;6.30;79.93;97952.38;4898217;29;20068;-53
2021/11/30 01:53:49;;;;;;;17.88;10.85;;;;;;;6.34;78.75;97947.47;4897909;29;20032;-53
2021/11/30 01:56:15;;;;;;;20.95;11.18;;;;;;;6.36;78.89;97940.13;4898207;29;20080;-52
2021/11/30 01:58:40;;;;;;;18.13;10.48;;;;;;;6.32;79.72;97917.81;4898223;29;20017;-52
2021/11/30 02:01:06;;;;;;;18.05;11.13;;;;;;;6.25;80.36;97923.19;4897881;29;20025;-53
2021/11/30 02:03:33;;;;;;;17.90;11.15;;;;;;;6.30;79.34;97910.09;4897529;29;20091;-52
2021/11/30 02:05:59;;;;;;;17.70;10.50;;;;;;;6.40;79.83;97917.53;4897519;29;20024;-54
2021/11/30 02:08:24;;;;;;;17.85;11.40;;;;;;;6.50;79.31;97901.97;4897423;29;20107;-54
2021/11/30 02:10:50;;;;;;;18.92;11.68;;;;;;;6.45;78.63;97897.34;4897429;29;20048;-53
2021/11/30 02:13:16;;;;;;;18.50;11.25;;;;;;;6.30;79.22;97872.31;4898026;29;20067;-52
2021/11/30 02:15:46;;;;;;;20.77;11.75;;;;;;;6.29;79.94;97903.22;4878101;29;20119;-51
2021/11/30 02:18:13;;;;;;;22.15;12.90;;;;;;;6.32;80.20;97905.44;4888568;29;20035;-50
2021/11/30 02:20:42;;;;;;;20.08;12.38;;;;;;;6.38;79.53;97901.09;4888068;29;20108;-51
2021/11/30 02:23:15;;;;;;;22.60;12.90;;;;;;;6.35;79.89;97901.53;4886866;29;20031;-52
2021/11/30 02:25:40;;;;;;;20.63;12.65;;;;;;;6.42;78.96;97903.06;4890497;29;20120;-53
2021/11/30 02:28:06;;;;;;;22.33;13.20;;;;;;;6.45;79.57;97915.84;4872127;29;20016;-51
2021/11/30 02:30:31;;;;;;;23.70;13.63;;;;;;;6.21;80.08;97901.69;4886901;29;20032;-51
2021/11/30 02:32:57;;;;;;;23.65;13.75;;;;;;;6.21;80.19;97890.31;4888269;29;20058;-52
2021/11/30 02:35:22;;;;;;;24.85;14.07;;;;;;;6.33;80.02;97882.47;4888408;29;20529;-49
2021/11/30 02:37:51;;;;;;;23.73;13.65;;;;;;;6.37;79.44;97878.34;4886595;29;20016;-50
2021/11/30 02:40:17;;;;;;;22.17;13.10;;;;;;;6.22;79.83;97876.06;4887760;29;20088;-49
2021/11/30 02:42:42;;;;;;;24.08;14.20;;;;;;;6.01;80.48;97874.66;4888290;29;20398;-49
2021/11/30 02:45:08;;;;;;;22.80;13.52;;;;;;;5.73;81.60;97875.94;4886366;29;20052;-50
2021/11/30 02:47:33;;;;;;;22.45;13.60;;;;;;;6.02;81.04;97878.94;4888066;29;20025;-49
2021/11/30 02:49:59;;;;;;;22.98;13.07;;;;;;;6.00;81.40;97896.84;4887637;29;20059;-49
2021/11/30 02:52:27;;;;;;;23.15;13.75;;;;;;;6.01;80.93;97880.75;4886953;29;20076;-49
2021/11/30 02:54:53;;;;;;;24.30;13.13;;;;;;;5.86;82.18;97878.47;4888739;29;20032;-48
2021/11/30 02:57:20;;;;;;;21.48;12.90;;;;;;;5.85;80.81;97876.03;4887933;29;20021;-49
2021/11/30 02:59:50;;;;;;;22.27;12.63;;;;;;;5.61;82.57;97854.72;4886569;29;20111;-50
2021/11/30 03:02:26;;;;;;;24.05;13.75;;;;;;;5.75;82.09;97836.94;4894377;29;20031;-49
2021/11/30 03:04:53;;;;;;;21.33;12.90;;;;;;;5.81;81.98;97835.25;4897039;29;20107;-49
2021/11/30 03:07:22;;;;;;;20.08;11.68;;;;;;;5.84;82.36;97824.25;4896829;29;20126;-49
2021/11/30 03:09:48;;;;;;;19.92;11.77;;;;;;;5.85;81.77;97828.50;4896947;29;20028;-52
2021/11/30 03:12:14;;;;;;;19.80;11.45;;;;;;;5.65;82.32;97826.06;4896827;29;20051;-50
2021/11/30 03:14:39;;;;;;;20.58;11.75;;;;;;;5.63;83.02;97814.91;4897137;29;20025;-49
2021/11/30 03:17:05;;;;;;;18.15;11.52;;;;;;;5.70;82.86;97822.78;4880079;29;20029;-51
2021/11/30 03:19:31;;;;;;;20.55;12.88;;;;;;;5.80;81.79;97821.22;4897085;29;20040;-51
2021/11/30 03:21:56;;;;;;;20.73;12.07;;;;;;;5.61;82.58;97817.78;4896877;29;20179;-51
2021/11/30 03:24:22;;;;;;;18.70;11.10;;;;;;;5.53;82.99;97820.69;4896522;29;20035;-49
2021/11/30 03:26:48;;;;;;;21.55;11.52;;;;;;;5.25;85.38;97819.34;4896336;29;20051;-50
2021/11/30 03:29:13;;;;;;;20.23;11.40;;;;;;;5.40;84.51;97807.63;4894948;29;20032;-49
2021/11/30 03:34:07;;;;;;;18.25;10.77;;;;;;;5.38;85.85;97807.84;4895949;29;20061;-51
2021/11/30 03:36:33;;;;;;;19.95;12.02;;;;;;;5.54;86.13;97811.78;4896182;29;20430;-51
2021/11/30 03:38:59;;;;;;;17.98;10.50;;;;;;;5.36;86.50;97819.66;4896229;29;20031;-51
2021/11/30 03:41:24;;;;;;;19.30;11.50;;;;;;;5.63;85.06;97825.47;4896063;29;20038;-50
2021/11/30 03:43:50;;;;;;;18.50;11.55;;;;;;;5.58;85.07;97820.03;4896071;29;20048;-51
2021/11/30 03:46:16;;;;;;;18.27;11.70;;;;;;;5.39;86.63;97817.38;4896188;29;20036;-53
2021/11/30 03:48:41;;;;;;;18.75;10.85;;;;;;;5.16;87.36;97810.09;4895897;29;20103;-52
2021/11/30 03:51:07;;;;;;;18.67;10.70;;;;;;;5.01;88.18;97793.78;4895885;29;20052;-52
2021/11/30 03:53:32;;;;;;;20.77;11.57;;;;;;;5.33;88.15;97793.69;4896107;29;20029;-54
2021/11/30 03:55:58;;;;;;;17.85;11.15;;;;;;;5.65;86.83;97792.59;4895660;29;20029;-54
2021/11/30 03:58:23;;;;;;;19.80;11.07;;;;;;;5.72;86.57;97804.91;4895420;29;20067;-54
2021/11/30 04:00:48;;;;;;;18.08;10.80;;;;;;;5.81;86.37;97806.22;4895772;29;20032;-53
2021/11/30 04:03:14;;;;;;;21.48;11.18;;;;;;;5.73;86.36;97806.50;4895628;29;20133;-53
2021/11/30 04:05:40;;;;;;;18.92;11.52;;;;;;;5.79;86.13;97809.06;4895754;29;20035;-54
2021/11/30 04:08:05;;;;;;;21.25;10.85;;;;;;;5.80;86.75;97800.13;4894269;29;20571;-54
2021/11/30 04:10:31;;;;;;;18.60;10.93;;;;;;;6.04;85.96;97802.94;4895385;29;20470;-55
2021/11/30 04:12:56;;;;;;;18.77;11.82;;;;;;;6.06;85.78;97804.31;4878813;29;20241;-55
2021/11/30 04:15:22;;;;;;;19.05;11.68;;;;;;;5.69;87.38;97806.13;4895456;29;20056;-52
2021/11/30 04:17:47;;;;;;;18.85;11.27;;;;;;;5.85;87.09;97810.03;4895460;29;20025;-50
2021/11/30 04:20:13;;;;;;;19.08;11.43;;;;;;;5.95;86.90;97810.34;4895330;29;20032;-54
2021/11/30 04:22:39;;;;;;;17.80;10.38;;;;;;;5.99;85.99;97819.44;4895423;29;20063;-54
2021/11/30 04:25:05;;;;;;;17.30;10.50;;;;;;;6.08;85.79;97825.25;4894439;29;20028;-53
2021/11/30 04:27:31;;;;;;;17.85;10.93;;;;;;;6.16;85.41;97835.50;4895261;29;20028;-52
2021/11/30 04:29:57;;;;;;;16.95;10.07;;;;;;;5.80;87.50;97841.56;4895482;29;20149;-50
2021/11/30 04:32:23;;;;;;;16.33;9.93;;;;;;;6.01;87.26;97843.78;4895462;29;20706;-51
2021/11/30 04:34:48;;;;;;;17.75;9.98;;;;;;;6.11;86.35;97848.56;4895050;29;20048;-51
2021/11/30 04:37:14;;;;;;;18.60;10.13;;;;;;;6.02;86.96;97857.81;4895207;29;20031;-50
2021/11/30 04:39:39;;;;;;;17.83;10.60;;;;;;;6.01;87.10;97866.75;4895327;29;20402;-52
2021/11/30 04:42:05;;;;;;;14.25;9.05;;;;;;;5.79;88.04;97863.72;4895583;29;20028;-52
2021/11/30 04:44:33;;;;;;;16.35;9.68;;;;;;;5.62;88.88;97864.25;4895403;29;20675;-51
2021/11/30 04:47:16;;;;;;;15.00;9.27;;;;;;;5.59;89.96;97871.81;4895728;29;20465;-51
2021/11/30 04:49:53;;;;;;;14.82;8.40;;;;;;;5.57;90.14;97879.94;4895505;29;20067;-52
2021/11/30 04:52:19;;;;;;;15.88;9.20;;;;;;;5.70;89.45;97894.03;4895296;29;20036;-52
2021/11/30 04:54:44;;;;;;;15.20;9.20;;;;;;;5.48;90.85;97912.88;4895379;29;20032;-54
2021/11/30 04:57:10;;;;;;;17.83;10.05;;;;;;;5.54;90.60;97906.75;4895327;29;20449;-56
2021/11/30 04:59:35;;;;;;;20.05;10.88;;;;;;;5.63;91.32;97918.63;4895243;29;20113;-55
2021/11/30 05:02:01;;;;;;;57.03;27.48;;;;;;;5.52;91.21;97945.75;4895093;29;20036;-55
2021/11/30 05:04:28;;;;;;;14.98;8.93;;;;;;;5.48;91.19;97948.00;4895313;29;20047;-55
2021/11/30 05:06:53;;;;;;;13.15;8.38;;;;;;;5.46;91.91;97970.34;4877886;29;20062;-55
2021/11/30 05:09:18;;;;;;;14.70;7.90;;;;;;;5.40;92.63;97960.63;4895526;29;20450;-56
2021/11/30 05:11:44;;;;;;;13.75;8.40;;;;;;;5.54;92.06;97977.19;4899132;29;20464;-55
2021/11/30 05:14:09;;;;;;;12.20;7.00;;;;;;;6.75;99.20;97964.50;4899402;29;20063;-53
2021/11/30 05:16:36;;;;;;;12.98;7.78;;;;;;;6.89;86.29;97989.72;4899039;29;20051;-55
2021/11/30 05:19:01;;;;;;;9.80;5.72;;;;;;;6.18;86.82;97991.91;4898937;29;20029;-56
2021/11/30 05:21:26;;;;;;;7.28;3.78;;;;;;;5.59;86.16;98006.38;4881718;29;20032;-55
2021/11/30 05:23:59;;;;;;;3.85;2.25;;;;;;;5.40;87.14;98026.59;4898406;29;20104;-54
2021/11/30 05:26:25;;;;;;;3.00;1.55;;;;;;;5.01;87.87;98026.59;4898852;29;20425;-55
2021/11/30 05:28:50;;;;;;;1.42;1.02;;;;;;;4.96;88.09;98036.13;4891964;29;20047;-54
2021/11/30 05:31:16;;;;;;;2.15;1.33;;;;;;;5.24;88.28;98049.00;4882832;29;20037;-54
2021/11/30 05:33:41;;;;;;;1.10;0.60;;;;;;;4.84;86.15;98054.44;4878290;29;20406;-52
2021/11/30 05:36:07;;;;;;;1.85;1.00;;;;;;;4.67;86.12;98068.03;4878870;29;20053;-55
2021/11/30 05:38:33;;;;;;;1.90;0.98;;;;;;;4.61;86.94;98068.06;4878859;29;20083;-54
2021/11/30 05:40:59;;;;;;;3.42;1.38;;;;;;;4.49;87.39;98076.59;4879487;29;20115;-54
2021/11/30 05:43:25;;;;;;;3.20;1.73;;;;;;;4.63;87.89;98073.94;4862267;29;20414;-56
2021/11/30 05:45:50;;;;;;;5.47;1.45;;;;;;;5.03;85.56;98095.72;4878513;29;20085;-54
2021/11/30 05:48:16;;;;;;;3.45;2.00;;;;;;;4.82;86.61;98099.44;4890972;29;20076;-55
2021/11/30 05:50:41;;;;;;;3.30;1.90;;;;;;;4.80;87.43;98108.59;4897014;29;20497;-55
2021/11/30 05:53:07;;;;;;;4.57;2.13;;;;;;;4.57;87.94;98117.72;4896716;29;20107;-55
2021/11/30 05:55:33;;;;;;;4.43;2.00;;;;;;;4.57;87.63;98123.00;4897199;29;20132;-55
2021/11/30 05:57:59;;;;;;;2.50;1.50;;;;;;;4.45;87.34;98127.25;4890088;29;20039;-56
2021/11/30 06:00:26;;;;;;;4.45;1.70;;;;;;;4.49;86.31;98133.72;4876895;29;20455;-54
2021/11/30 06:05:20;;;;;;;3.78;1.67;;;;;;;4.41;87.20;98141.84;4895999;29;20037;-55
2021/11/30 06:07:46;;;;;;;3.08;1.67;;;;;;;4.71;85.95;98155.41;4896893;29;20203;-55
2021/11/30 06:10:11;;;;;;;2.58;1.25;;;;;;;4.47;85.70;98154.19;4896877;29;20040;-54
2021/11/30 06:12:37;;;;;;;1.60;1.10;;;;;;;4.15;86.20;98174.22;4895130;29;20104;-54
2021/11/30 06:15:03;;;;;;;1.75;1.27;;;;;;;4.24;85.26;98170.41;4879178;29;20088;-54
2021/11/30 06:17:28;;;;;;;2.42;1.23;;;;;;;4.46;85.23;98182.38;4881781;29;20025;-54
2021/11/30 06:19:53;;;;;;;3.53;2.58;;;;;;;4.57;86.96;98195.94;4879367;29;20025;-54
2021/11/30 06:22:19;;;;;;;3.13;1.48;;;;;;;5.28;80.16;98174.97;4889332;29;20039;-51
2021/11/30 06:24:44;;;;;;;1.63;1.30;;;;;;;4.61;81.46;98192.72;4895321;29;20032;-53
2021/11/30 06:27:10;;;;;;;2.83;0.90;;;;;;;4.39;83.24;98204.44;4896554;29;20052;-52
2021/11/30 06:29:35;;;;;;;1.77;1.10;;;;;;;4.70;82.84;98207.31;4896049;29;20047;-53
2021/11/30 06:32:01;;;;;;;3.08;1.27;;;;;;;4.55;82.57;98230.41;4896315;29;20086;-53
2021/11/30 06:34:26;;;;;;;15.60;7.97;;;;;;;4.49;83.38;98220.66;4895909;29;20060;-56
2021/11/30 06:36:52;;;;;;;2.28;1.30;;;;;;;4.38;81.93;98221.25;4895946;29;20021;-52
2021/11/30 06:39:17;;;;;;;3.30;1.77;;;;;;;4.25;83.49;98235.22;4895265;29;20063;-53
2021/11/30 06:41:43;;;;;;;2.28;1.55;;;;;;;4.38;84.31;98242.31;4894886;29;20511;-53
2021/11/30 06:44:08;;;;;;;2.85;1.27;;;;;;;4.73;82.95;98247.44;4895085;29;20028;-54
2021/11/30 06:46:34;;;;;;;3.33;1.80;;;;;;;4.59;81.67;98251.88;4895468;29;20039;-55
2021/11/30 06:48:59;;;;;;;7.10;3.35;;;;;;;5.22;82.40;98267.31;4895867;29;20073;-51
2021/11/30 06:51:25;;;;;;;5.40;3.17;;;;;;;5.73;82.13;98285.06;4896681;29;20036;-54
2021/11/30 06:53:50;;;;;;;2.33;1.52;;;;;;;5.01;77.49;98282.34;4896475;29;20036;-52
2021/11/30 06:56:16;;;;;;;2.70;1.50;;;;;;;4.78;78.53;98293.28;4896383;29;20548;-51
2021/11/30 06:58:41;;;;;;;2.45;1.48;;;;;;;4.81;78.00;98287.59;4895957;29;20355;-53
2021/11/30 07:01:08;;;;;;;1.70;1.15;;;;;;;4.86;77.61;98295.72;4894799;29;20041;-53
2021/11/30 07:03:35;;;;;;;1.60;1.05;;;;;;;4.49;78.16;98304.97;4895378;29;20029;-51
2021/11/30 07:06:13;;;;;;;2.35;1.63;;;;;;;4.45;78.29;98320.34;4894074;29;20056;-51
2021/11/30 07:13:59;;;;;;;3.55;1.77;;;;;;;4.43;79.18;98329.47;4895546;29;19962;-50
2021/11/30 07:16:25;;;;;;;2.25;1.50;;;;;;;4.29;78.70;98334.69;4894877;29;20060;-51
2021/11/30 07:18:50;;;;;;;2.35;1.55;;;;;;;4.38;78.69;98329.25;4895443;29;20017;-52
2021/11/30 07:21:15;;;;;;;1.92;1.50;;;;;;;4.46;78.30;98337.00;4894974;29;20478;-52
2021/11/30 07:23:41;;;;;;;2.05;1.42;;;;;;;4.30;77.83;98336.34;4895458;29;20075;-54
2021/11/30 07:26:06;;;;;;;2.65;1.70;;;;;;;4.55;76.51;98338.44;4877844;29;20429;-53
2021/11/30 07:28:33;;;;;;;2.67;1.80;;;;;;;4.67;76.06;98342.09;4894525;29;20036;-53
2021/11/30 07:31:04;;;;;;;2.17;1.60;;;;;;;4.52;76.19;98362.53;4894820;29;20044;-51
2021/11/30 07:33:32;;;;;;;2.58;1.58;;;;;;;4.74;74.48;98362.38;4894042;29;20123;-51
2021/11/30 07:35:58;;;;;;;2.75;1.38;;;;;;;4.60;74.70;98375.53;4894906;29;20508;-52
2021/11/30 07:38:24;;;;;;;2.20;1.60;;;;;;;4.50;74.17;98381.16;4894933;29;20504;-50
2021/11/30 07:40:49;;;;;;;3.00;1.98;;;;;;;4.64;72.03;98362.78;4894944;29;20060;-52
2021/11/30 07:43:14;;;;;;;2.65;1.92;;;;;;;4.28;72.80;98356.78;4894590;29;20111;-51
2021/11/30 07:45:42;;;;;;;2.85;1.67;;;;;;;4.24;72.17;98381.88;4895131;29;20028;-50
2021/11/30 07:48:08;;;;;;;1.77;1.42;;;;;;;4.31;71.00;98380.09;4894385;29;20433;-51
2021/11/30 07:50:33;;;;;;;4.50;2.00;;;;;;;4.39;71.53;98396.75;4894347;29;20028;-50
2021/11/30 07:52:59;;;;;;;2.83;2.03;;;;;;;4.36;71.13;98390.06;4894621;29;20054;-51
2021/11/30 07:55:24;;;;;;;2.75;2.03;;;;;;;4.53;70.21;98401.03;4894487;29;20163;-51
2021/11/30 07:57:50;;;;;;;3.08;1.95;;;;;;;4.56;69.58;98410.38;4895760;29;20029;-52
2021/11/30 08:00:16;;;;;;;3.53;2.10;;;;;;;4.47;69.69;98402.66;4894916;29;20269;-51
2021/11/30 08:02:42;;;;;;;3.28;2.08;;;;;;;4.38;70.64;98424.06;4895008;29;20028;-49
2021/11/30 08:05:08;;;;;;;3.08;2.03;;;;;;;4.48;70.60;98408.72;4895653;29;20131;-51
2021/11/30 08:07:33;;;;;;;4.70;2.20;;;;;;;4.35;70.55;98424.47;4894893;29;20032;-49
2021/11/30 08:09:59;;;;;;;4.40;2.25;;;;;;;4.56;69.91;98423.56;4891488;29;20032;-51
2021/11/30 08:12:25;;;;;;;3.85;2.15;;;;;;;4.58;69.01;98434.72;4885981;29;20111;-49
2021/11/30 08:14:50;;;;;;;3.67;2.38;;;;;;;4.54;68.60;98429.03;4885182;29;20064;-55
2021/11/30 08:17:18;;;;;;;3.20;2.08;;;;;;;4.41;69.68;98469.28;4886288;29;20342;-52
2021/11/30 08:19:46;;;;;;;4.10;2.40;;;;;;;4.45;69.16;98467.88;4883902;29;20043;-53
2021/11/30 08:22:12;;;;;;;3.88;2.20;;;;;;;4.51;68.10;98468.91;4876195;29;20033;-50
2021/11/30 08:24:37;;;;;;;2.60;2.00;;;;;;;4.31;68.17;98445.13;4880375;29;20039;-51
2021/11/30 08:27:04;;;;;;;3.08;2.05;;;;;;;4.22;67.92;98455.00;4894795;29;20564;-52
2021/11/30 08:29:31;;;;;;;3.03;2.00;;;;;;;4.48;67.08;98485.94;4894589;29;20052;-51
2021/11/30 08:31:59;;;;;;;3.47;2.50;;;;;;;4.48;66.54;98485.94;4895288;29;20068;-51
2021/11/30 08:34:25;;;;;;;5.35;2.90;;;;;;;4.45;66.98;98501.31;4894332;29;20275;-51
2021/11/30 08:36:50;;;;;;;6.03;2.92;;;;;;;4.57;67.40;98510.31;4894565;29;20036;-52
2021/11/30 08:39:16;;;;;;;3.03;2.38;;;;;;;4.52;66.83;98509.28;4894507;29;20043;-50
2021/11/30 08:41:41;;;;;;;3.70;2.38;;;;;;;4.68;65.88;98508.94;4894760;29;20033;-52
2021/11/30 08:44:07;;;;;;;3.20;2.28;;;;;;;4.81;66.29;98518.75;4894572;29;20104;-50
2021/11/30 08:46:32;;;;;;;3.78;2.10;;;;;;;4.59;65.66;98526.75;4894890;29;20103;-51
2021/11/30 08:48:58;;;;;;;4.00;1.85;;;;;;;4.52;66.01;98544.34;4894513;29;20033;-51
2021/11/30 08:51:23;;;;;;;5.05;2.10;;;;;;;4.61;64.96;98539.72;4894727;29;20032;-49
2021/11/30 08:53:48;;;;;;;2.72;2.05;;;;;;;4.51;65.24;98550.59;4894538;29;20032;-50
2021/11/30 08:56:14;;;;;;;3.38;2.53;;;;;;;4.64;65.76;98550.69;4894367;29;20032;-52
2021/11/30 08:58:40;;;;;;;4.75;2.30;;;;;;;4.49;66.18;98555.25;4895068;29;20050;-50
2021/11/30 09:01:05;;;;;;;3.65;2.20;;;;;;;4.57;65.65;98557.75;4894314;29;20037;-52
2021/11/30 09:03:31;;;;;;;3.78;2.30;;;;;;;4.70;65.73;98565.72;4894669;29;20032;-53
2021/11/30 09:05:57;;;;;;;4.18;2.63;;;;;;;4.94;64.63;98554.91;4894714;29;20142;-54
2021/11/30 09:08:23;;;;;;;3.22;2.15;;;;;;;4.70;64.25;98547.28;4894033;29;20032;-51
2021/11/30 09:10:49;;;;;;;6.20;2.60;;;;;;;4.54;64.66;98550.22;4894180;29;20041;-51
2021/11/30 09:13:15;;;;;;;4.10;2.45;;;;;;;4.53;64.52;98574.13;4894404;29;20107;-51
2021/11/30 09:15:41;;;;;;;3.90;2.90;;;;;;;4.73;64.29;98572.44;4893901;29;20477;-52
2021/11/30 09:18:06;;;;;;;4.90;2.90;;;;;;;4.64;63.32;98558.59;4894733;29;20092;-52
2021/11/30 09:20:32;;;;;;;4.60;2.80;;;;;;;4.63;63.49;98572.78;4894330;29;20033;-52
2021/11/30 09:22:58;;;;;;;4.70;3.33;;;;;;;4.49;64.09;98565.78;4894528;29;20350;-49
2021/11/30 09:25:24;;;;;;;5.00;3.20;;;;;;;4.49;63.84;98592.97;4894230;29;20504;-53
2021/11/30 09:27:49;;;;;;;4.60;2.97;;;;;;;4.48;63.47;98540.47;4894195;29;20169;-51
2021/11/30 09:30:16;;;;;;;5.45;3.20;;;;;;;4.56;63.83;98600.09;4894439;29;20032;-54
2021/11/30 09:32:41;;;;;;;4.60;3.20;;;;;;;4.60;63.06;98585.53;4894135;29;20573;-53
2021/11/30 09:35:11;;;;;;;3.85;2.70;;;;;;;4.46;63.37;98584.63;4894027;29;20068;-52
2021/11/30 09:37:37;;;;;;;4.28;3.25;;;;;;;4.70;63.11;98599.16;4894178;29;20035;-51
2021/11/30 09:40:04;;;;;;;4.47;3.30;;;;;;;4.69;63.15;98603.63;4894401;29;20032;-51
2021/11/30 09:42:29;;;;;;;6.28;3.50;;;;;;;4.58;63.25;98593.63;4893689;29;20036;-49
2021/11/30 09:44:55;;;;;;;5.57;3.38;;;;;;;4.66;62.83;98613.72;4894287;29;20142;-49
2021/11/30 09:47:20;;;;;;;5.10;3.35;;;;;;;4.79;63.30;98613.81;4894587;29;20028;-39
2021/11/30 09:49:46;;;;;;;6.15;3.78;;;;;;;4.95;62.05;98625.91;4878000;29;20101;-38
2021/11/30 09:52:11;;;;;;;5.03;3.20;;;;;;;4.89;62.08;98626.66;4877662;29;20375;-39
2021/11/30 09:54:37;;;;;;;5.45;3.47;;;;;;;4.82;62.02;98620.53;4877659;29;20067;-39
2021/11/30 09:57:03;;;;;;;5.13;2.88;;;;;;;4.77;61.44;98634.28;4895955;29;20108;-39
2021/11/30 09:59:29;;;;;;;3.97;2.67;;;;;;;4.78;61.97;98632.47;4897371;29;20052;-39
2021/11/30 10:01:54;;;;;;;4.32;3.28;;;;;;;4.85;61.72;98626.22;4897630;29;20028;-39
2021/11/30 10:04:20;;;;;;;5.80;3.10;;;;;;;4.80;61.46;98643.66;4897676;29;20111;-41
2021/11/30 10:06:46;;;;;;;7.13;3.72;;;;;;;4.88;61.67;98652.22;4878743;29;20103;-40
2021/11/30 10:09:21;;;;;;;5.38;3.58;;;;;;;4.85;61.77;98667.59;4897319;29;20052;-40
2021/11/30 10:11:58;;;;;;;6.30;3.33;;;;;;;4.81;61.41;98653.97;4897402;29;20032;-39
2021/11/30 10:14:26;;;;;;;6.07;4.03;;;;;;;4.94;61.77;98673.53;4897081;29;20033;-39
2021/11/30 10:17:26;;;;;;;6.10;4.32;;;;;;;5.03;61.68;98685.56;4897255;29;20051;-38
2021/11/30 10:19:57;;;;;;;5.55;4.00;;;;;;;4.97;62.16;98687.16;4897386;29;20433;-39
2021/11/30 10:22:48;;;;;;;5.85;4.05;;;;;;;5.08;61.70;98705.09;4880218;29;20432;-39
2021/11/30 10:25:14;;;;;;;;;;;;;;;4.89;61.21;98682.84;4897411;29;20032;-39
2021/11/30 10:27:51;;;;;;;5.63;4.03;;;;;;;5.04;61.21;98697.75;4896570;29;20387;-39
2021/11/30 10:30:25;;;;;;;5.97;4.30;;;;;;;5.02;61.40;98694.47;4896484;29;20032;-39
2021/11/30 10:32:51;;;;;;;6.70;4.38;;;;;;;4.70;61.28;98668.53;4882324;29;20489;-38
2021/11/30 10:35:18;;;;;;;7.03;4.28;;;;;;;5.00;61.05;98718.41;4896751;29;20063;-39
2021/11/30 10:37:45;;;;;;;7.13;4.35;;;;;;;5.12;60.65;98707.31;4880131;29;20032;-38
2021/11/30 10:40:15;;;;;;;6.50;3.83;;;;;;;4.98;60.64;98722.25;4896378;29;20033;-39
2021/11/30 10:42:46;;;;;;;7.20;4.70;;;;;;;5.02;61.25;98732.19;4896796;29;20035;-39
2021/11/30 10:45:11;;;;;;;12.65;5.40;;;;;;;5.30;60.50;98734.03;4896774;29;20130;-39
2021/11/30 10:47:37;;;;;;;6.43;4.93;;;;;;;5.32;60.64;98716.16;4896478;29;20111;-39
2021/11/30 10:50:14;;;;;;;7.43;4.80;;;;;;;5.16;60.46;98738.41;4864147;29;20032;-39
2021/11/30 10:52:41;;;;;;;7.88;5.22;;;;;;;5.08;60.72;98731.47;4896573;29;20087;-38
2021/11/30 10:55:13;;;;;;;8.55;5.30;;;;;;;5.14;61.25;98734.31;4896669;29;20032;-39
2021/11/30 10:57:38;;;;;;;5.78;4.40;;;;;;;5.13;60.29;98714.25;4879890;29;20040;-39
2021/11/30 11:00:16;;;;;;;5.88;3.92;;;;;;;4.95;60.40;98728.72;4896443;29;20486;-39
2021/11/30 11:03:20;;;;;;;7.68;5.10;;;;;;;5.00;60.36;98723.66;4896248;29;20032;-39
2021/11/30 11:05:39;;;;;;;6.38;4.72;;;;;;;4.98;59.90;98720.41;4895324;29;20045;-38
2021/11/30 11:08:07;;;;;;;7.22;4.60;;;;;;;4.95;59.68;98730.53;4896434;29;20032;-38
2021/11/30 11:10:33;;;;;;;8.07;5.28;;;;;;;5.04;58.96;98738.09;4896268;29;20493;-38
2021/11/30 11:13:21;;;;;;;8.77;4.85;;;;;;;4.95;59.47;98728.72;4879200;29;20144;-38
2021/11/30 11:15:47;;;;;;;7.28;4.32;;;;;;;4.77;58.64;98736.28;4895926;29;20100;-38
2021/11/30 11:18:18;;;;;;;8.85;5.13;;;;;;;4.93;58.59;98741.28;4896424;29;20062;-39
2021/11/30 11:20:44;;;;;;;7.32;4.80;;;;;;;4.82;58.83;98726.00;4896138;29;20032;-38
2021/11/30 11:23:19;;;;;;;8.07;5.35;;;;;;;4.96;58.63;98740.88;4895417;29;20413;-39
2021/11/30 11:25:45;;;;;;;10.65;5.13;;;;;;;4.79;59.26;98747.44;4890244;29;20035;-40
2021/11/30 11:28:10;;;;;;;8.60;5.10;;;;;;;5.03;58.80;98769.97;4895597;29;20424;-38
2021/11/30 11:30:35;;;;;;;6.97;4.50;;;;;;;4.98;58.78;98751.25;4879204;29;20123;-45
2021/11/30 11:33:01;;;;;;;7.70;4.85;;;;;;;4.74;58.83;98750.66;4863786;29;20032;-39
2021/11/30 11:35:26;;;;;;;9.07;5.18;;;;;;;4.65;59.13;98770.25;4878813;29;20056;-39
2021/11/30 11:37:54;;;;;;;7.43;4.78;;;;;;;4.56;58.78;98763.47;4878962;29;20128;-39
2021/11/30 11:40:19;;;;;;;7.35;4.80;;;;;;;4.78;58.79;98780.06;4879562;29;20115;-39
2021/11/30 11:42:45;;;;;;;8.55;5.00;;;;;;;4.65;58.48;98784.22;4895600;29;20043;-38
2021/11/30 11:45:10;;;;;;;6.57;4.80;;;;;;;4.90;57.57;98792.56;4895714;29;20169;-38